Time;durP1;ratioP1;P1;durP2;ratioP2;P2;SDS_P1;SDS_P2;PMS_P1;PMS_P2;Temp;Humidity;BMP_temperature;BMP_pressure;BME280_temperature;BME280_humidity;BME280_pressure;Samples;Min_cycle;Max_cycle;Signal;HPM_P1;HPM_P2
2022/05/20 00:02:20;;;;;;;1.27;0.40;;;;;;;24.57;40.49;101599.38;5060515;28;20040;-45
2022/05/20 00:04:46;;;;;;;2.13;0.38;;;;;;;24.58;40.49;101597.50;5062669;28;20800;-42
2022/05/20 00:07:12;;;;;;;0.60;0.30;;;;;;;24.57;40.58;101594.03;5061195;28;20473;-50
2022/05/20 00:09:37;;;;;;;0.98;0.30;;;;;;;24.56;40.49;101592.41;5066528;28;20055;-44
2022/05/20 00:12:04;;;;;;;1.05;0.30;;;;;;;24.56;40.77;101595.06;5071602;28;20473;-39
2022/05/20 00:14:31;;;;;;;2.35;0.30;;;;;;;24.56;40.66;101589.72;5057725;28;20040;-45
2022/05/20 00:17:01;;;;;;;1.45;0.52;;;;;;;24.56;40.53;101594.25;5065557;28;20101;-54
2022/05/20 00:19:27;;;;;;;1.02;0.30;;;;;;;24.56;40.77;101591.59;5056773;28;20086;-52
2022/05/20 00:21:53;;;;;;;0.63;0.38;;;;;;;24.55;40.65;101595.28;5051071;28;20033;-52
2022/05/20 00:24:18;;;;;;;0.82;0.30;;;;;;;24.55;40.43;101600.59;5054333;28;20043;-44
2022/05/20 00:26:44;;;;;;;2.00;0.30;;;;;;;24.54;40.46;101602.44;5068148;28;20290;-48
2022/05/20 00:29:09;;;;;;;1.45;0.30;;;;;;;24.55;40.38;101604.09;5056985;28;20033;-51
2022/05/20 00:31:35;;;;;;;0.90;0.28;;;;;;;24.55;40.70;101596.09;5054802;28;20112;-50
2022/05/20 00:34:00;;;;;;;1.90;0.35;;;;;;;24.56;40.36;101594.25;5066599;28;20126;-45
2022/05/20 00:36:26;;;;;;;1.25;0.50;;;;;;;24.57;40.67;101609.19;5050895;28;20037;-51
2022/05/20 00:38:51;;;;;;;1.00;0.30;;;;;;;24.58;40.50;101603.63;5055041;28;20036;-50
2022/05/20 00:41:16;;;;;;;1.40;0.30;;;;;;;24.59;40.47;101599.13;5056166;28;20077;-46
2022/05/20 00:43:46;;;;;;;1.23;0.30;;;;;;;24.59;40.33;101591.94;5061148;28;20388;-46
2022/05/20 00:46:22;;;;;;;1.00;0.30;;;;;;;24.59;40.20;101597.28;5059982;28;20055;-48
2022/05/20 00:48:55;;;;;;;2.90;0.25;;;;;;;24.62;40.20;101586.19;5067911;28;20504;-41
2022/05/20 00:51:27;;;;;;;1.58;0.30;;;;;;;24.63;39.91;101600.34;5062098;28;20637;-55
2022/05/20 00:54:00;;;;;;;2.03;0.40;;;;;;;24.62;40.25;101594.19;5059622;28;20036;-47
2022/05/20 00:56:32;;;;;;;1.00;0.38;;;;;;;24.62;40.02;101594.19;5060601;28;20111;-44
2022/05/20 00:58:59;;;;;;;0.65;0.20;;;;;;;24.62;39.95;101604.84;5057858;28;21365;-40
2022/05/20 01:01:26;;;;;;;2.15;0.30;;;;;;;24.61;40.09;101592.56;5061871;28;20041;-41
2022/05/20 01:03:53;;;;;;;0.63;0.30;;;;;;;24.61;40.17;101589.91;5056974;28;20075;-46
2022/05/20 01:06:19;;;;;;;1.42;0.30;;;;;;;24.60;40.17;101590.09;5062064;28;20036;-51
2022/05/20 01:08:44;;;;;;;1.85;0.30;;;;;;;24.60;40.08;101584.78;5067160;28;20037;-41
2022/05/20 01:11:10;;;;;;;2.00;0.30;;;;;;;24.58;40.21;101582.31;5060573;28;20025;-55
2022/05/20 01:13:36;;;;;;;0.90;0.30;;;;;;;24.58;39.86;101587.66;5067480;28;20444;-52
2022/05/20 01:16:08;;;;;;;0.88;0.30;;;;;;;24.58;40.07;101584.16;5064386;28;20032;-43
2022/05/20 01:18:37;;;;;;;0.70;0.30;;;;;;;24.57;39.93;101587.88;5064711;28;20115;-50
2022/05/20 01:21:03;;;;;;;2.00;0.52;;;;;;;24.56;40.09;101584.41;5062565;28;20626;-56
2022/05/20 01:23:33;;;;;;;0.70;0.30;;;;;;;24.56;40.22;101588.91;5054979;28;20480;-46
2022/05/20 01:25:58;;;;;;;1.60;0.30;;;;;;;24.56;40.03;101586.25;5081770;28;20033;-41
2022/05/20 01:28:27;;;;;;;2.22;0.38;;;;;;;24.56;39.65;101584.41;5055660;28;20036;-53
2022/05/20 01:31:03;;;;;;;1.85;0.20;;;;;;;24.54;40.09;101585.66;5065191;28;20041;-42
2022/05/20 01:33:40;;;;;;;0.70;0.30;;;;;;;24.54;39.70;101589.13;5062401;28;20060;-41
2022/05/20 01:36:10;;;;;;;2.38;0.30;;;;;;;24.56;40.14;101589.72;5061207;28;20075;-42
2022/05/20 01:38:35;;;;;;;0.60;0.30;;;;;;;24.56;39.74;101588.91;5056639;28;20062;-54
2022/05/20 01:41:06;;;;;;;1.02;0.30;;;;;;;24.55;39.74;101593.44;5064486;28;20033;-45
2022/05/20 01:44:08;;;;;;;1.27;0.22;;;;;;;24.55;39.85;101592.59;5064150;28;20044;-52
2022/05/20 01:46:42;;;;;;;0.50;0.20;;;;;;;24.54;39.99;101598.97;5030892;28;20396;-45
2022/05/20 01:49:33;;;;;;;0.55;0.20;;;;;;;24.52;39.69;101593.84;5060055;28;20362;-46
2022/05/20 01:52:31;;;;;;;0.77;0.22;;;;;;;24.51;39.72;101592.22;5018237;28;20140;-42
2022/05/20 01:55:15;;;;;;;0.77;0.20;;;;;;;24.53;39.55;101586.66;5008073;28;20052;-47
2022/05/20 01:58:00;;;;;;;0.70;0.30;;;;;;;24.52;39.73;101593.84;5011967;28;20140;-52
2022/05/20 02:00:28;;;;;;;0.90;0.30;;;;;;;24.52;39.71;101580.53;5018401;28;20437;-46
2022/05/20 02:02:57;;;;;;;0.63;0.20;;;;;;;24.53;39.52;101586.66;5011821;28;20037;-44
2022/05/20 02:05:40;;;;;;;1.50;0.40;;;;;;;24.53;39.57;101584.00;5010681;28;20144;-50
2022/05/20 02:08:12;;;;;;;0.55;0.20;;;;;;;24.52;39.31;101590.34;5011333;28;20041;-46
2022/05/20 02:10:45;;;;;;;0.68;0.20;;;;;;;24.52;39.52;101587.69;5013871;28;20215;-43
2022/05/20 02:13:15;;;;;;;2.08;0.30;;;;;;;24.53;39.38;101592.00;5021504;28;20076;-48
2022/05/20 02:15:55;;;;;;;1.20;0.30;;;;;;;24.52;39.60;101588.50;5018072;28;20045;-54
2022/05/20 02:18:30;;;;;;;0.63;0.30;;;;;;;24.52;39.42;101585.03;5019618;28;20444;-48
2022/05/20 02:21:03;;;;;;;0.40;0.20;;;;;;;24.52;39.71;101588.50;5007670;28;20517;-51
2022/05/20 02:23:35;;;;;;;0.43;0.22;;;;;;;24.54;39.52;101590.97;5012170;28;20052;-54
2022/05/20 02:26:09;;;;;;;0.52;0.22;;;;;;;24.53;39.58;101584.81;5005122;28;20410;-52
2022/05/20 02:29:03;;;;;;;1.75;0.22;;;;;;;24.51;39.52;101586.88;5027710;28;20052;-37
2022/05/20 02:31:48;;;;;;;2.50;0.30;;;;;;;24.52;39.30;101591.19;5045928;28;20074;-44
2022/05/20 02:34:13;;;;;;;0.85;0.20;;;;;;;24.53;39.29;101598.16;5059837;28;20385;-54
2022/05/20 02:36:40;;;;;;;1.08;0.20;;;;;;;24.54;39.34;101599.78;5051659;28;20040;-48
2022/05/20 02:39:14;;;;;;;1.35;0.30;;;;;;;24.55;39.49;101595.28;5067848;28;20447;-41
2022/05/20 02:41:46;;;;;;;1.83;0.20;;;;;;;24.54;39.45;101597.13;5064389;28;20107;-39
2022/05/20 02:44:12;;;;;;;0.95;0.30;;;;;;;24.54;39.36;101591.78;5072331;28;20483;-43
2022/05/20 02:46:39;;;;;;;0.30;0.20;;;;;;;24.55;39.63;101598.75;5060724;28;20406;-56
2022/05/20 02:49:05;;;;;;;0.55;0.20;;;;;;;24.54;39.51;101602.44;5061800;28;20116;-60
2022/05/20 02:51:30;;;;;;;0.98;0.30;;;;;;;24.53;39.28;101606.13;5064935;28;20127;-47
2022/05/20 02:53:56;;;;;;;2.15;0.40;;;;;;;24.55;39.31;101605.94;5065102;28;20039;-43
2022/05/20 02:56:21;;;;;;;0.77;0.30;;;;;;;24.54;39.28;101606.94;5053462;28;20032;-49
2022/05/20 03:04:16;;;;;;;0.85;0.30;;;;;;;24.51;39.26;101594.88;5067869;28;20078;-51
2022/05/20 03:06:51;;;;;;;0.70;0.30;;;;;;;24.51;39.15;101600.19;5062446;28;20029;-48
2022/05/20 03:09:20;;;;;;;;;;;;;;;24.43;39.42;101605.75;5067926;28;20081;-42
2022/05/20 03:11:47;;;;;;;1.40;0.20;;;;;;;24.45;39.37;101609.03;5058789;28;20007;-51
2022/05/20 03:14:15;;;;;;;0.68;0.30;;;;;;;24.47;39.33;101605.13;5062186;28;20380;-50
2022/05/20 03:16:41;;;;;;;2.35;0.30;;;;;;;24.49;39.48;101607.56;5060906;28;20492;-50
2022/05/20 03:19:07;;;;;;;1.45;0.20;;;;;;;24.48;39.34;101608.59;5067765;28;20094;-47
2022/05/20 03:21:35;;;;;;;1.35;0.30;;;;;;;24.49;39.02;101612.91;5062580;28;20443;-43
2022/05/20 03:24:01;;;;;;;0.80;0.30;;;;;;;24.48;39.52;101608.59;5060573;28;20048;-46
2022/05/20 03:26:28;;;;;;;1.27;0.30;;;;;;;24.47;39.36;101606.97;5060062;28;20075;-48
2022/05/20 03:28:54;;;;;;;0.80;0.22;;;;;;;24.46;39.49;101605.31;5057016;28;20599;-41
2022/05/20 03:31:19;;;;;;;0.52;0.32;;;;;;;24.46;39.44;101610.66;5063453;28;20056;-50
2022/05/20 03:33:46;;;;;;;0.60;0.30;;;;;;;24.46;39.33;101608.00;5065538;28;20028;-46
2022/05/20 03:36:12;;;;;;;0.85;0.30;;;;;;;24.46;39.41;101608.00;5057979;28;20519;-54
2022/05/20 03:38:39;;;;;;;0.40;0.20;;;;;;;24.46;39.32;101602.66;5059433;28;20036;-44
2022/05/20 03:41:06;;;;;;;1.95;0.32;;;;;;;24.46;39.18;101603.47;5061338;28;20035;-48
2022/05/20 03:43:33;;;;;;;0.77;0.30;;;;;;;24.47;39.25;101607.78;5061380;28;20041;-45
2022/05/20 03:45:59;;;;;;;0.50;0.20;;;;;;;24.46;39.18;101600.81;5055928;28;20036;-57
2022/05/20 03:48:25;;;;;;;0.47;0.20;;;;;;;24.47;39.22;101607.78;5049788;28;20036;-53
2022/05/20 03:50:50;;;;;;;1.33;0.20;;;;;;;24.48;39.28;101611.28;5065765;28;20024;-46
2022/05/20 03:53:16;;;;;;;2.35;0.47;;;;;;;24.48;39.55;101611.28;5065353;28;20559;-42
2022/05/20 03:55:42;;;;;;;3.88;0.30;;;;;;;24.50;39.61;101609.22;5058404;28;20024;-41
2022/05/20 03:58:07;;;;;;;5.40;0.30;;;;;;;24.49;39.53;101610.25;5063307;28;20443;-52
2022/05/20 04:01:56;;;;;;;8.70;0.80;;;;;;;24.50;39.66;101609.22;5067149;28;20127;-37
2022/05/20 04:03:19;;;;;;;;;;;;;;;24.40;39.73;101614.16;5054963;28;20099;-44
2022/05/20 04:05:45;;;;;;;1.17;0.30;;;;;;;24.44;40.12;101618.03;5060385;28;20327;-43
2022/05/20 04:08:10;;;;;;;4.22;0.40;;;;;;;24.46;39.50;101613.31;5070830;28;20249;-39
2022/05/20 04:10:37;;;;;;;3.97;0.50;;;;;;;24.47;39.57;101620.28;5067197;28;20035;-53
2022/05/20 04:13:02;;;;;;;0.80;0.30;;;;;;;24.49;39.60;101615.56;5068917;28;20644;-43
2022/05/20 04:15:28;;;;;;;2.35;0.38;;;;;;;24.49;39.41;101610.25;5054886;28;20278;-50
2022/05/20 04:17:53;;;;;;;2.53;0.40;;;;;;;24.49;39.51;101612.91;5059045;28;20032;-42
2022/05/20 04:20:19;;;;;;;4.18;0.57;;;;;;;24.47;39.43;101613.13;5052740;28;20029;-46
2022/05/20 04:22:45;;;;;;;3.63;0.40;;;;;;;24.46;39.47;101603.47;5063085;28;20119;-52
2022/05/20 04:25:12;;;;;;;3.60;0.60;;;;;;;24.44;39.55;101610.88;5076229;28;20044;-56
2022/05/20 04:27:38;;;;;;;5.93;0.57;;;;;;;24.45;39.86;101620.50;5056321;28;20063;-49
2022/05/20 04:30:05;;;;;;;6.30;0.65;;;;;;;24.45;39.64;101619.66;5059322;28;20055;-50
2022/05/20 04:32:31;;;;;;;2.45;0.50;;;;;;;24.48;39.82;101620.06;5062266;28;20041;-51
2022/05/20 04:34:56;;;;;;;4.32;1.42;;;;;;;24.53;40.86;101614.13;5050592;28;20545;-49
2022/05/20 04:37:23;;;;;;;4.40;1.10;;;;;;;24.54;40.89;101613.09;5059089;28;20036;-47
2022/05/20 04:39:49;;;;;;;4.00;0.60;;;;;;;24.52;40.22;101617.81;5065452;28;20086;-43
2022/05/20 04:47:43;;;;;;;2.25;0.40;;;;;;;24.47;39.07;101614.97;5061162;28;20039;-46
2022/05/20 04:50:09;;;;;;;5.97;0.70;;;;;;;24.46;38.90;101614.13;5071704;28;20029;-45
2022/05/20 04:52:35;;;;;;;8.23;0.50;;;;;;;24.47;38.90;101612.28;5068741;28;20451;-49
2022/05/20 04:55:01;;;;;;;4.68;0.50;;;;;;;24.47;38.82;101617.63;5068589;28;20135;-42
2022/05/20 04:57:41;;;;;;;3.85;0.40;;;;;;;24.45;38.71;101625.81;5059170;28;20063;-55
2022/05/20 05:00:09;;;;;;;6.53;0.93;;;;;;;24.45;38.98;101625.00;5052452;28;20032;-48
2022/05/20 05:02:36;;;;;;;2.40;0.50;;;;;;;24.45;39.06;101614.34;5059775;28;20033;-46
2022/05/20 05:05:03;;;;;;;2.28;0.60;;;;;;;24.43;38.78;101617.22;5068958;28;20032;-56
2022/05/20 05:07:28;;;;;;;7.60;0.70;;;;;;;24.42;38.95;101614.75;5058002;28;20041;-52
2022/05/20 05:09:54;;;;;;;3.42;0.40;;;;;;;24.41;38.87;101613.94;5051552;28;20040;-48
2022/05/20 05:12:22;;;;;;;1.90;0.40;;;;;;;24.40;39.04;101616.81;5057767;28;20040;-52
2022/05/20 05:14:50;;;;;;;1.38;0.50;;;;;;;24.38;38.74;101618.88;5062390;28;20032;-55
2022/05/20 05:18:09;;;;;;;2.20;0.52;;;;;;;24.37;39.21;101618.03;5065501;28;20064;-53
2022/05/20 05:20:16;;;;;;;2.08;0.50;;;;;;;24.35;38.87;101614.78;5055442;28;20047;-48
2022/05/20 05:22:42;;;;;;;2.95;0.50;;;;;;;24.36;38.80;101623.56;5067095;28;20459;-57
2022/05/20 05:25:11;;;;;;;2.55;0.55;;;;;;;24.37;38.94;101625.22;5066049;28;20029;-55
2022/05/20 05:27:36;;;;;;;1.23;0.40;;;;;;;24.36;38.67;101619.06;5062235;28;20536;-45
2022/05/20 05:30:04;;;;;;;3.80;0.50;;;;;;;24.37;38.77;101625.22;5050282;28;20049;-46
2022/05/20 05:32:29;;;;;;;2.08;0.50;;;;;;;24.37;38.66;101618.03;5073709;28;20147;-40
2022/05/20 05:34:55;;;;;;;1.77;0.50;;;;;;;24.39;38.30;101625.81;5065414;28;20112;-44
2022/05/20 05:37:20;;;;;;;2.67;0.47;;;;;;;24.37;38.65;101627.88;5067955;28;20051;-55
2022/05/20 05:39:46;;;;;;;1.25;0.40;;;;;;;24.39;38.49;101631.16;5054650;28;20090;-57
2022/05/20 05:42:12;;;;;;;1.38;0.35;;;;;;;24.38;38.55;101629.53;5068749;28;20035;-41
2022/05/20 05:44:37;;;;;;;2.75;0.40;;;;;;;24.39;38.85;101631.16;5056920;28;20539;-62
2022/05/20 05:47:04;;;;;;;2.72;0.38;;;;;;;24.40;38.59;101638.13;5064366;28;20028;-42
2022/05/20 05:49:29;;;;;;;1.60;0.40;;;;;;;24.39;39.00;101631.97;5061845;28;20029;-48
2022/05/20 05:51:55;;;;;;;1.83;0.30;;;;;;;24.40;39.06;101627.47;5062119;28;20625;-44
2022/05/20 05:54:22;;;;;;;1.13;0.38;;;;;;;24.39;39.16;101641.81;5068082;28;20119;-40
2022/05/20 05:56:49;;;;;;;1.13;0.28;;;;;;;24.38;39.03;101638.31;5063170;28;20082;-57
2022/05/20 05:59:14;;;;;;;2.88;0.43;;;;;;;24.37;39.15;101634.03;5065781;28;20473;-50
2022/05/20 06:01:40;;;;;;;1.77;0.40;;;;;;;24.36;39.49;101636.91;5060657;28;20090;-55
2022/05/20 06:04:05;;;;;;;0.80;0.30;;;;;;;24.36;39.11;101631.56;5063297;28;20160;-61
2022/05/20 06:06:31;;;;;;;2.15;0.50;;;;;;;24.34;39.50;101628.28;5066789;28;20074;-61
2022/05/20 06:08:56;;;;;;;1.20;0.30;;;;;;;24.32;39.53;101631.16;5064349;28;20021;-43
2022/05/20 06:11:22;;;;;;;1.92;0.40;;;;;;;24.32;40.15;101635.66;5063497;28;20468;-47
2022/05/20 06:13:47;;;;;;;5.18;0.63;;;;;;;24.31;40.78;101629.53;5063121;28;20097;-52
2022/05/20 06:16:21;;;;;;;2.70;0.60;;;;;;;24.32;41.30;101630.34;5063948;28;20033;-54
2022/05/20 06:18:48;;;;;;;6.85;2.03;;;;;;;24.37;41.91;101623.38;5065667;28;20032;-45
2022/05/20 06:21:13;;;;;;;6.20;0.80;;;;;;;24.36;41.85;101626.25;5066190;28;20488;-46
2022/05/20 06:23:39;;;;;;;2.50;0.38;;;;;;;24.34;41.88;101628.28;5064518;28;20059;-40
2022/05/20 06:26:04;;;;;;;2.20;0.40;;;;;;;24.31;42.37;101628.69;5066166;28;20494;-40
2022/05/20 06:28:30;;;;;;;7.72;0.70;;;;;;;24.30;42.44;101632.41;5066357;28;20027;-59
2022/05/20 06:30:57;;;;;;;1.45;0.50;;;;;;;24.27;42.56;101630.13;5058494;28;20098;-45
2022/05/20 06:33:24;;;;;;;1.55;0.40;;;;;;;24.28;42.96;101626.44;5064214;28;20059;-49
2022/05/20 06:41:18;;;;;;;1.00;0.40;;;;;;;24.23;42.71;101631.53;5068137;28;20051;-43
2022/05/20 06:43:43;;;;;;;1.90;0.32;;;;;;;24.24;42.76;101623.34;5062860;28;20033;-56
2022/05/20 06:46:10;;;;;;;5.45;0.60;;;;;;;24.27;42.48;101624.81;5059385;28;20450;-48
2022/05/20 06:48:54;;;;;;;3.33;0.30;;;;;;;24.24;42.42;101628.69;5060952;28;20024;-50
2022/05/20 06:51:25;;;;;;;1.15;0.30;;;;;;;24.27;42.05;101627.47;5065154;28;20082;-53
2022/05/20 06:53:52;;;;;;;2.42;0.50;;;;;;;24.27;42.06;101617.66;5066999;28;20032;-42
2022/05/20 06:56:19;;;;;;;0.88;0.50;;;;;;;24.29;41.58;101631.56;5066910;28;20467;-54
2022/05/20 06:58:45;;;;;;;2.10;0.40;;;;;;;24.29;41.44;101626.25;5069468;28;20028;-45
2022/05/20 07:01:11;;;;;;;1.88;0.40;;;;;;;24.30;41.73;101627.06;5060431;28;20064;-43
2022/05/20 07:03:37;;;;;;;5.75;0.57;;;;;;;24.30;41.46;101635.88;5064758;28;20115;-54
2022/05/20 07:06:05;;;;;;;0.85;0.30;;;;;;;24.32;41.98;101635.66;5052081;28;20646;-49
2022/05/20 07:08:31;;;;;;;1.67;0.30;;;;;;;24.31;41.59;101629.53;5066056;28;20535;-47
2022/05/20 07:10:57;;;;;;;1.40;0.40;;;;;;;24.31;41.67;101623.38;5065116;28;21277;-49
2022/05/20 07:13:23;;;;;;;3.65;0.38;;;;;;;24.32;41.38;101630.34;5065171;28;20040;-41
2022/05/20 07:15:48;;;;;;;2.75;0.30;;;;;;;24.31;41.65;101632.19;5064425;28;20115;-41
2022/05/20 07:18:14;;;;;;;2.42;0.35;;;;;;;24.32;41.50;101631.16;5056689;28;20099;-46
2022/05/20 07:20:41;;;;;;;2.70;0.40;;;;;;;24.33;41.15;101637.31;5067097;28;20511;-47
2022/05/20 07:23:07;;;;;;;2.42;0.30;;;;;;;24.32;41.16;101630.34;5068102;28;20028;-53
2022/05/20 07:25:33;;;;;;;2.63;0.30;;;;;;;24.31;41.12;101629.53;5068099;28;20031;-54
2022/05/20 07:28:00;;;;;;;1.77;0.30;;;;;;;24.32;40.86;101630.34;5050918;28;20136;-40
2022/05/20 07:30:26;;;;;;;2.60;0.30;;;;;;;24.33;41.01;101631.97;5047306;28;20041;-45
2022/05/20 07:32:52;;;;;;;1.60;0.30;;;;;;;24.31;40.79;101629.53;5046189;28;20037;-41
2022/05/20 07:35:17;;;;;;;3.13;0.32;;;;;;;24.31;40.77;101631.38;5047850;28;20365;-49
2022/05/20 07:37:43;;;;;;;0.75;0.30;;;;;;;24.29;40.86;101626.25;5048640;28;20025;-44
2022/05/20 07:40:09;;;;;;;1.73;0.30;;;;;;;24.29;40.68;101633.41;5047826;28;20029;-49
2022/05/20 07:42:34;;;;;;;1.10;0.30;;;;;;;24.27;40.67;101627.47;5047579;28;20120;-45
2022/05/20 07:45:01;;;;;;;1.50;0.38;;;;;;;24.28;40.76;101629.13;5047827;28;20577;-40
2022/05/20 07:47:28;;;;;;;3.28;0.40;;;;;;;24.27;40.30;101627.47;5076660;28;20051;-46
2022/05/20 07:49:53;;;;;;;3.67;0.30;;;;;;;24.28;40.59;101621.13;5074977;28;20123;-53
2022/05/20 07:55:06;;;;;;;1.27;0.32;;;;;;;24.26;40.67;101618.66;5071443;28;20562;-51
2022/05/20 07:57:33;;;;;;;2.85;0.30;;;;;;;24.26;40.51;101610.69;5071347;28;20101;-51
2022/05/20 07:59:59;;;;;;;1.48;0.30;;;;;;;24.26;40.54;101616.00;5070241;28;20029;-48
2022/05/20 08:02:27;;;;;;;1.45;0.50;;;;;;;24.26;40.51;101613.34;5070059;28;20044;-45
2022/05/20 08:05:01;;;;;;;3.80;0.73;;;;;;;24.27;40.84;101619.50;5069917;28;20032;-37
2022/05/20 08:08:01;;;;;;;3.97;0.38;;;;;;;24.24;40.70;101614.53;5071045;28;20054;-49
2022/05/20 08:10:28;;;;;;;1.02;0.30;;;;;;;24.25;40.97;101616.19;5061688;28;20151;-40
2022/05/20 08:12:55;;;;;;;1.10;0.30;;;;;;;24.26;41.04;101610.69;5069262;28;20029;-46
2022/05/20 08:15:21;;;;;;;0.88;0.30;;;;;;;24.26;40.96;101615.19;5070970;28;20032;-46
2022/05/20 08:17:46;;;;;;;1.95;0.30;;;;;;;24.25;40.71;101611.72;5070330;28;20082;-51
2022/05/20 08:20:27;;;;;;;0.88;0.30;;;;;;;24.23;41.04;101611.06;5070443;28;20028;-45
2022/05/20 08:22:53;;;;;;;2.92;0.30;;;;;;;24.23;41.10;101607.56;5070154;28;20484;-49
2022/05/20 08:25:20;;;;;;;2.25;0.30;;;;;;;24.23;41.03;101610.25;5069116;28;20403;-46
2022/05/20 08:27:45;;;;;;;1.30;0.30;;;;;;;24.24;40.82;101614.53;5070536;28;20131;-46
2022/05/20 08:30:19;;;;;;;0.77;0.28;;;;;;;24.22;41.25;101605.94;5070345;28;20155;-51
2022/05/20 08:32:45;;;;;;;1.88;0.40;;;;;;;24.21;41.03;101607.78;5062441;28;20032;-48
2022/05/20 08:35:11;;;;;;;1.83;0.40;;;;;;;24.22;41.20;101608.59;5063183;28;20029;-48
2022/05/20 08:37:39;;;;;;;0.80;0.32;;;;;;;24.21;40.72;101609.63;5061873;28;20301;-50
2022/05/20 08:40:07;;;;;;;3.28;0.47;;;;;;;24.20;41.65;101600.00;5068917;28;20033;-53
2022/05/20 08:42:33;;;;;;;2.05;0.30;;;;;;;24.20;41.44;101606.16;5064158;28;20481;-38
2022/05/20 08:45:02;;;;;;;4.22;0.40;;;;;;;24.20;41.36;101608.00;5067296;28;20043;-48
2022/05/20 08:47:37;;;;;;;1.50;0.32;;;;;;;24.20;41.19;101600.81;5067490;28;20024;-57
2022/05/20 08:50:12;;;;;;;2.47;0.30;;;;;;;24.22;41.57;101595.28;5070054;28;20042;-41
2022/05/20 08:52:37;;;;;;;1.58;0.30;;;;;;;24.22;41.36;101590.78;5068029;28;20024;-46
2022/05/20 08:55:03;;;;;;;8.80;0.52;;;;;;;24.24;41.31;101595.91;5058801;28;20123;-52
2022/05/20 08:57:33;;;;;;;28.63;2.03;;;;;;;24.24;41.53;101590.56;5069034;28;20049;-52
2022/05/20 09:00:00;;;;;;;9.27;0.93;;;;;;;24.24;42.27;101588.72;5068754;28;20048;-52
2022/05/20 09:02:26;;;;;;;5.43;0.50;;;;;;;24.25;42.15;101593.06;5083098;28;20085;-50
2022/05/20 09:04:52;;;;;;;8.20;0.57;;;;;;;24.23;42.04;101588.94;5055911;28;20033;-43
2022/05/20 09:07:20;;;;;;;5.63;0.70;;;;;;;24.23;41.56;101588.94;5064757;28;20032;-45
2022/05/20 09:09:47;;;;;;;3.40;0.40;;;;;;;24.22;41.50;101582.78;5066778;28;20042;-46
2022/05/20 09:12:25;;;;;;;3.95;0.70;;;;;;;24.21;42.13;101585.66;5052305;28;20063;-48
2022/05/20 09:18:24;;;;;;;4.47;0.35;;;;;;;24.16;42.36;101579.13;5066385;28;20128;-52
2022/05/20 09:20:52;;;;;;;1.60;0.50;;;;;;;24.16;42.15;101583.63;5069872;28;20050;-45
2022/05/20 09:23:22;;;;;;;4.03;0.40;;;;;;;24.17;42.05;101574.59;5066646;28;20078;-49
2022/05/20 09:25:57;;;;;;;1.35;0.43;;;;;;;24.15;42.01;101574.81;5059756;28;20032;-46
2022/05/20 09:28:34;;;;;;;1.47;0.40;;;;;;;24.15;42.23;101566.81;5048269;28;20493;-49
2022/05/20 09:31:30;;;;;;;1.75;0.45;;;;;;;24.16;42.81;101571.13;5049436;28;20338;-46
2022/05/20 09:34:21;;;;;;;6.05;0.82;;;;;;;24.16;42.58;101572.97;5066561;28;20102;-44
2022/05/20 09:36:57;;;;;;;0.65;0.30;;;;;;;24.18;42.40;101568.25;5065309;28;20071;-46
2022/05/20 09:39:26;;;;;;;2.65;0.30;;;;;;;24.19;42.04;101563.75;5067171;28;20056;-48
2022/05/20 09:41:54;;;;;;;3.72;0.40;;;;;;;24.19;42.01;101566.41;5065613;28;20044;-47
2022/05/20 09:44:24;;;;;;;2.83;0.40;;;;;;;24.19;42.00;101561.09;5054164;28;20373;-52
2022/05/20 09:46:54;;;;;;;2.60;0.30;;;;;;;24.20;41.80;101565.38;5049751;28;20040;-52
2022/05/20 09:49:42;;;;;;;1.25;0.30;;;;;;;24.19;41.77;101561.09;5067788;28;20048;-52
2022/05/20 09:52:18;;;;;;;2.03;0.30;;;;;;;24.20;41.81;101563.53;5067607;28;20047;-50
2022/05/20 09:54:48;;;;;;;1.55;0.30;;;;;;;24.22;41.70;101555.34;5054927;28;20037;-49
2022/05/20 09:57:23;;;;;;;3.97;0.40;;;;;;;24.22;41.87;101550.03;5066883;28;20080;-48
2022/05/20 10:00:01;;;;;;;4.65;0.68;;;;;;;24.20;41.59;101550.22;5082367;28;20028;-45
2022/05/20 10:02:38;;;;;;;2.80;0.40;;;;;;;24.19;41.97;101553.09;5054583;28;20130;-43
2022/05/20 10:05:32;;;;;;;3.33;0.40;;;;;;;24.15;42.20;101550.03;5061111;28;20112;-50
2022/05/20 10:08:07;;;;;;;3.78;0.55;;;;;;;24.15;42.32;101548.19;5063764;28;20090;-46
2022/05/20 10:10:42;;;;;;;1.73;0.30;;;;;;;24.18;42.24;101546.97;5066215;28;20036;-44
2022/05/20 10:13:15;;;;;;;1.75;0.32;;;;;;;24.20;42.08;101536.09;5056809;28;20115;-50
2022/05/20 10:15:47;;;;;;;2.88;0.50;;;;;;;24.21;41.87;101543.06;5060295;28;20029;-50
2022/05/20 10:18:22;;;;;;;2.70;0.40;;;;;;;24.20;42.10;101533.44;5070256;28;20615;-47
2022/05/20 10:21:00;;;;;;;2.63;0.40;;;;;;;24.19;41.83;101534.47;5065745;28;20040;-48
2022/05/20 10:23:54;;;;;;;4.97;0.70;;;;;;;24.18;41.89;101530.97;5065004;28;20374;-52
2022/05/20 10:26:58;;;;;;;1.75;0.50;;;;;;;24.17;41.87;101532.00;5064065;28;20044;-47
2022/05/20 10:32:36;;;;;;;2.78;0.50;;;;;;;24.20;41.99;101522.78;5066899;28;20047;-49
2022/05/20 10:35:08;;;;;;;3.47;0.50;;;;;;;24.23;41.97;101519.72;5062591;28;20390;-50
2022/05/20 10:37:59;;;;;;;4.63;0.50;;;;;;;24.23;42.45;101522.38;5061874;28;20040;-51
2022/05/20 10:40:42;;;;;;;1.58;0.30;;;;;;;24.24;42.48;101524.00;5063172;28;20028;-45
2022/05/20 10:43:24;;;;;;;2.20;0.60;;;;;;;24.33;43.69;101522.78;5066062;28;20089;-47
2022/05/20 10:49:06;;;;;;;4.45;0.75;;;;;;;24.47;44.33;101517.22;5064676;28;20048;-48
2022/05/20 10:51:48;;;;;;;6.15;1.10;;;;;;;24.51;43.66;101516.78;5060731;28;20105;-46
2022/05/20 10:54:31;;;;;;;2.13;0.50;;;;;;;24.52;43.55;101508.59;5061797;28;20090;-45
2022/05/20 10:57:29;;;;;;;2.60;0.40;;;;;;;24.51;42.78;101501.63;5067572;28;20427;-45
2022/05/20 11:00:05;;;;;;;3.60;0.40;;;;;;;24.45;41.71;101499.81;5060710;28;20060;-55
2022/05/20 11:02:49;;;;;;;1.77;0.38;;;;;;;24.43;41.49;101499.19;5078533;28;20472;-48
2022/05/20 11:05:37;;;;;;;3.17;0.60;;;;;;;24.44;42.28;101503.50;5053289;28;20393;-51
2022/05/20 11:08:27;;;;;;;4.18;0.57;;;;;;;24.48;42.72;101497.53;5078627;28;20147;-49
2022/05/20 11:11:01;;;;;;;3.67;0.50;;;;;;;24.57;42.91;101495.47;5047911;28;20537;-49
2022/05/20 11:13:33;;;;;;;1.95;0.60;;;;;;;24.56;41.99;101491.16;5066190;28;20033;-45
2022/05/20 11:16:14;;;;;;;3.60;0.40;;;;;;;24.64;42.48;101490.06;5063262;28;20036;-42
2022/05/20 11:19:27;;;;;;;9.90;0.85;;;;;;;24.69;45.63;101477.75;5061052;28;20039;-51
2022/05/20 11:22:10;;;;;;;3.10;0.50;;;;;;;24.79;46.48;101480.78;5026721;28;20447;-47
2022/05/20 11:24:44;;;;;;;2.33;0.40;;;;;;;24.86;50.62;101482.59;5063991;28;20488;-49
2022/05/20 11:27:36;;;;;;;5.03;1.02;;;;;;;25.13;52.84;101476.06;5067442;28;20021;-49
2022/05/20 11:30:23;;;;;;;10.88;1.58;;;;;;;25.30;50.97;101473.69;5061968;28;20451;-39
2022/05/20 11:33:13;;;;;;;2.05;0.45;;;;;;;25.25;47.90;101471.69;5055263;28;20040;-53
2022/05/20 11:36:12;;;;;;;2.78;0.68;;;;;;;25.14;47.48;101462.53;5060898;28;20032;-54
2022/05/20 11:39:26;;;;;;;1.70;0.40;;;;;;;25.02;46.56;101460.78;5072039;28;20043;-51
2022/05/20 11:42:28;;;;;;;2.55;0.90;;;;;;;24.98;46.22;101451.59;5073683;28;20488;-46
2022/05/20 11:45:10;;;;;;;4.03;0.70;;;;;;;24.90;45.51;101446.47;5014506;28;20180;-50
2022/05/20 11:48:13;;;;;;;1.27;0.40;;;;;;;24.88;45.08;101448.53;5022861;28;20042;-41
2022/05/20 11:51:03;;;;;;;2.15;0.40;;;;;;;24.85;44.36;101441.78;5019844;28;20038;-43
2022/05/20 11:53:48;;;;;;;4.97;0.60;;;;;;;24.84;44.85;101434.00;5021167;28;20072;-47
2022/05/20 11:56:30;;;;;;;3.30;0.50;;;;;;;24.85;44.66;101431.13;5020590;28;20108;-44
2022/05/20 11:59:20;;;;;;;7.10;0.57;;;;;;;24.86;44.84;101434.63;5004498;28;20144;-51
2022/05/20 12:01:49;;;;;;;1.70;0.47;;;;;;;24.88;44.69;101432.56;5029008;28;20519;-49
2022/05/20 12:04:18;;;;;;;5.45;0.52;;;;;;;24.88;44.42;101422.72;5009311;28;20198;-48
2022/05/20 12:06:51;;;;;;;3.28;0.65;;;;;;;24.88;44.75;101427.22;5022845;28;20041;-50
2022/05/20 12:09:36;;;;;;;3.17;0.60;;;;;;;24.89;45.06;101424.34;5028777;28;20038;-43
2022/05/20 12:12:29;;;;;;;2.53;0.80;;;;;;;24.91;43.89;101410.81;5013508;28;20061;-47
2022/05/20 12:15:12;;;;;;;4.68;0.70;;;;;;;24.91;43.62;101411.63;5027080;28;20486;-47
2022/05/20 12:17:39;;;;;;;4.53;1.00;;;;;;;24.92;44.98;101407.91;5022035;28;20156;-46